This is the latest recevied weather packets stored in our database for station/object K7CTM. If no packets are shown the sender has not sent any weather packets the latest 10 day(s).
| Time | Temp. | Humidity | Pressure | Rain* | Wind** | Luminosity | Snow |
|---|---|---|---|---|---|---|---|
| 1777787836 | 8.89° C | 63% | 1026.9 hPa | 0 mm | - | 0 W/m² | - |
| 1777787532 | 9.44° C | 63% | 1026.9 hPa | 0 mm | - | 0 W/m² | - |
| 1777787227 | 10.56° C | 58% | 1026.9 hPa | 0 mm | - | 0 W/m² | - |
| 1777786925 | 10.56° C | 57% | 1026.8 hPa | 0 mm | - | 0 W/m² | - |
| 1777786623 | 10.56° C | 57% | 1026.5 hPa | 0 mm | - | 0 W/m² | - |
| 1777786321 | 9.44° C | 60% | 1026.8 hPa | 0 mm | - | 0 W/m² | - |
| 1777786017 | 10° C | 61% | 1026.8 hPa | 0 mm | - | 0 W/m² | - |
| 1777785714 | 10° C | 59% | 1026.9 hPa | 0 mm | - | 0 W/m² | - |
| 1777785409 | 9.44° C | 61% | 1026.9 hPa | 0 mm | - | 0 W/m² | - |
| 1777785107 | 10° C | 61% | 1027 hPa | 0 mm | - | 0 W/m² | - |
| 1777784803 | 10° C | 59% | 1027.1 hPa | 0 mm | - | 0 W/m² | - |
| 1777784500 | 10.56° C | 57% | 1027.1 hPa | 0 mm | - | 0 W/m² | - |
| 1777784197 | 11.11° C | 55% | 1027 hPa | 0 mm | - | 0 W/m² | - |
| 1777783894 | 12.22° C | 53% | 1027 hPa | 0 mm | - | 0 W/m² | - |
| 1777783591 | 12.22° C | 52% | 1027 hPa | 0 mm | - | 0 W/m² | - |
| 1777783289 | 11.67° C | 53% | 1027 hPa | 0 mm | - | 0 W/m² | - |
| 1777782985 | 11.67° C | 53% | 1027.1 hPa | 0 mm | - | 0 W/m² | - |
| 1777782682 | 11.11° C | 54% | 1027 hPa | 0 mm | - | 0 W/m² | - |
| 1777782378 | 11.11° C | 54% | 1026.9 hPa | 0 mm | - | 0 W/m² | - |
| 1777782074 | 10.56° C | 56% | 1026.9 hPa | 0 mm | - | 0 W/m² | - |
| 1777781771 | 11.11° C | 56% | 1027.1 hPa | 0 mm | - | 0 W/m² | - |
| 1777781469 | 11.67° C | 54% | 1027.1 hPa | 0 mm | - | 0 W/m² | - |
| 1777781166 | 11.67° C | 53% | 1027.2 hPa | 0 mm | - | 0 W/m² | - |
| 1777780864 | 12.22° C | 53% | 1027 hPa | 0 mm | - | 0 W/m² | - |
| 1777780560 | 12.22° C | 52% | 1027 hPa | 0 mm | - | 0 W/m² | - |
* Rain latest hour (hover to see other rain measurements)
** Current wind speed in m/s (hover to see current wind gust speed)